createdAt,value
2023-02-03T00:01:12.315Z,30.18
2023-02-03T00:03:41.309Z,30.12
2023-02-03T00:06:10.090Z,30.28
2023-02-03T00:08:39.047Z,30.17
2023-02-03T00:11:09.521Z,30.21
2023-02-03T00:13:37.143Z,30.21
2023-02-03T00:16:07.619Z,30.08
2023-02-03T00:18:35.366Z,30.21
2023-02-03T00:21:04.442Z,30.20
2023-02-03T00:23:33.618Z,30.06
2023-02-03T00:26:07.446Z,29.98
2023-02-03T00:28:36.534Z,29.96
2023-02-03T00:31:05.569Z,30.12
2023-02-03T00:33:34.879Z,30.03
2023-02-03T00:36:06.085Z,30.06
2023-02-03T00:38:33.810Z,29.93
2023-02-03T00:41:02.622Z,30.12
2023-02-03T00:43:30.236Z,30.30
2023-02-03T00:46:01.025Z,30.06
2023-02-03T00:48:30.591Z,30.00
2023-02-03T00:50:59.471Z,30.11
2023-02-03T00:53:28.493Z,30.14
2023-02-03T00:55:56.228Z,29.97
2023-02-03T00:58:25.252Z,30.11
2023-02-03T01:00:55.354Z,30.00
2023-02-03T01:03:24.515Z,29.98
2023-02-03T01:05:53.322Z,30.02
2023-02-03T01:08:23.726Z,29.79
2023-02-03T01:10:51.405Z,30.00
2023-02-03T01:13:19.025Z,30.12
2023-02-03T01:15:47.143Z,29.78
2023-02-03T01:18:15.231Z,29.99
2023-02-03T01:20:44.269Z,29.75
2023-02-03T01:23:11.952Z,29.80
2023-02-03T01:25:39.661Z,29.85
2023-02-03T01:28:07.346Z,29.87
2023-02-03T01:30:35.065Z,29.70
2023-02-03T01:33:02.749Z,29.72
2023-02-03T01:35:30.386Z,29.79
2023-02-03T01:37:59.576Z,29.95
2023-02-03T01:40:27.538Z,29.95
2023-02-03T01:42:55.432Z,29.85
2023-02-03T01:45:23.142Z,29.82
2023-02-03T01:47:51.111Z,30.05
2023-02-03T01:50:19.076Z,29.95
2023-02-03T01:52:48.257Z,29.84
2023-02-03T01:55:17.738Z,29.86
2023-02-03T01:57:46.253Z,29.76
2023-02-03T02:00:14.405Z,29.76
2023-02-03T02:02:42.129Z,29.83
2023-02-03T02:05:11.278Z,29.94
2023-02-03T02:07:38.992Z,29.75
2023-02-03T02:10:06.960Z,30.00
2023-02-03T02:12:35.969Z,29.84
2023-02-03T02:15:03.657Z,29.89
2023-02-03T02:17:36.544Z,29.70
2023-02-03T02:20:21.882Z,29.98
2023-02-03T02:22:53.077Z,29.53
2023-02-03T02:25:26.390Z,30.04
2023-02-03T02:28:09.075Z,29.81
2023-02-03T02:31:04.068Z,29.96
2023-02-03T02:33:35.724Z,29.85
2023-02-03T02:36:05.813Z,30.12
2023-02-03T02:38:36.932Z,29.97
2023-02-03T02:41:06.028Z,29.96
2023-02-03T02:43:36.291Z,30.11
2023-02-03T02:46:04.556Z,30.14
2023-02-03T02:48:33.588Z,30.21
2023-02-03T02:51:02.643Z,30.08
2023-02-03T02:53:30.710Z,30.04
2023-02-03T02:55:58.379Z,30.20
2023-02-03T02:58:26.111Z,29.96
2023-02-03T03:00:53.757Z,30.21
2023-02-03T03:03:21.811Z,30.14
2023-02-03T03:05:50.827Z,30.20
2023-02-03T03:08:19.849Z,30.07
2023-02-03T03:10:47.507Z,30.02
2023-02-03T03:13:17.217Z,29.88
2023-02-03T03:15:44.908Z,30.25
2023-02-03T03:18:13.551Z,30.13
2023-02-03T03:20:42.940Z,30.08
2023-02-03T03:23:11.480Z,30.05
2023-02-03T03:25:42.302Z,30.02
2023-02-03T03:28:11.210Z,29.86
2023-02-03T03:30:38.999Z,29.87
2023-02-03T03:33:06.949Z,29.95
2023-02-03T03:35:37.342Z,29.99
2023-02-03T03:38:06.273Z,29.77
2023-02-03T03:40:34.769Z,29.99
2023-02-03T03:43:04.458Z,29.97
2023-02-03T03:45:33.385Z,29.95
2023-02-03T03:48:02.333Z,29.60
2023-02-03T03:50:30.249Z,29.84
2023-02-03T03:52:57.921Z,29.62
2023-02-03T03:55:25.589Z,29.82
2023-02-03T03:57:55.923Z,29.88
2023-02-03T04:00:25.634Z,29.70
2023-02-03T04:02:53.907Z,29.54
2023-02-03T04:05:21.599Z,29.67
2023-02-03T04:07:49.300Z,29.68
2023-02-03T04:10:19.471Z,29.53
2023-02-03T04:12:47.141Z,29.59
2023-02-03T04:15:14.828Z,29.67
2023-02-03T04:17:43.852Z,29.61
2023-02-03T04:20:12.220Z,29.60
2023-02-03T04:22:39.824Z,29.51
2023-02-03T04:25:07.603Z,29.55
2023-02-03T04:27:35.347Z,29.62
2023-02-03T04:30:03.284Z,29.53
2023-02-03T04:32:31.586Z,29.67
2023-02-03T04:35:00.637Z,29.57
2023-02-03T04:37:28.377Z,29.57
2023-02-03T04:39:56.479Z,29.57
2023-02-03T04:42:24.149Z,29.71
2023-02-03T04:44:51.871Z,29.70
2023-02-03T04:47:19.597Z,29.68
2023-02-03T04:49:47.242Z,29.73
2023-02-03T04:52:16.355Z,29.36
2023-02-03T04:54:44.062Z,29.71
2023-02-03T04:57:11.730Z,29.67
2023-02-03T04:59:39.433Z,29.68
2023-02-03T05:02:08.239Z,29.67
2023-02-03T05:04:35.967Z,29.67
2023-02-03T05:07:03.713Z,29.45
2023-02-03T05:09:33.089Z,29.50
2023-02-03T05:12:00.706Z,29.57
2023-02-03T05:14:28.354Z,29.46
2023-02-03T05:16:56.069Z,29.27
2023-02-03T05:19:23.801Z,29.46
2023-02-03T05:21:51.448Z,29.59
2023-02-03T05:24:19.071Z,29.51
2023-02-03T05:26:48.074Z,29.25
2023-02-03T05:29:15.734Z,29.51
2023-02-03T05:31:43.386Z,29.36
2023-02-03T05:34:11.090Z,29.40
2023-02-03T05:36:38.743Z,29.40
2023-02-03T05:39:06.467Z,29.53
2023-02-03T05:41:51.281Z,29.61
2023-02-03T05:44:20.258Z,29.37
2023-02-03T05:46:47.953Z,29.43
2023-02-03T05:49:15.698Z,29.45
2023-02-03T05:51:43.390Z,29.41
2023-02-03T05:54:11.017Z,29.58
2023-02-03T05:56:38.675Z,29.38
2023-02-03T05:59:06.508Z,29.46
2023-02-03T06:01:35.600Z,29.58
2023-02-03T06:04:03.559Z,29.59
2023-02-03T06:06:33.951Z,29.55
2023-02-03T06:09:01.725Z,29.22
2023-02-03T06:11:29.515Z,29.06
2023-02-03T06:13:58.949Z,29.53
2023-02-03T06:16:26.900Z,29.44
2023-02-03T06:18:58.433Z,29.36
2023-02-03T06:21:26.061Z,29.24
2023-02-03T06:23:54.703Z,29.23
2023-02-03T06:26:22.364Z,28.96
2023-02-03T06:28:49.996Z,29.19
2023-02-03T06:31:17.810Z,28.97
2023-02-03T06:33:45.779Z,29.12
2023-02-03T06:36:14.880Z,28.94
2023-02-03T06:38:42.506Z,29.28
2023-02-03T06:41:10.141Z,29.08
2023-02-03T06:43:37.809Z,29.15
2023-02-03T06:46:05.770Z,29.14
2023-02-03T06:48:33.458Z,29.17
2023-02-03T06:51:01.595Z,28.97
2023-02-03T06:53:30.864Z,29.36
2023-02-03T06:55:58.571Z,29.08
2023-02-03T06:58:26.362Z,29.29
2023-02-03T07:00:56.489Z,29.06
2023-02-03T07:03:24.210Z,29.08
2023-02-03T07:05:51.893Z,29.13
2023-02-03T07:08:19.569Z,28.73
2023-02-03T07:10:48.669Z,28.85
2023-02-03T07:13:16.364Z,28.90
2023-02-03T07:15:44.103Z,28.67
2023-02-03T07:18:13.079Z,28.92
2023-02-03T07:20:42.604Z,28.83
2023-02-03T07:23:10.305Z,28.58
2023-02-03T07:25:38.023Z,28.64
2023-02-03T07:28:07.137Z,28.70
2023-02-03T07:30:34.964Z,28.92
2023-02-03T07:33:02.792Z,28.92
2023-02-03T07:35:30.845Z,28.80
2023-02-03T07:37:58.490Z,28.76
2023-02-03T07:40:26.411Z,28.37
2023-02-03T07:42:54.271Z,28.93
2023-02-03T07:45:24.860Z,28.79
2023-02-03T07:47:52.573Z,29.03
2023-02-03T07:50:20.575Z,28.98
2023-02-03T07:52:48.211Z,29.33
2023-02-03T07:55:15.935Z,29.15
2023-02-03T07:57:45.210Z,29.15
2023-02-03T08:00:14.028Z,29.06
2023-02-03T08:02:43.274Z,29.05
2023-02-03T08:05:11.705Z,29.24
2023-02-03T08:07:39.444Z,29.11
2023-02-03T08:10:07.454Z,29.49
2023-02-03T08:12:35.239Z,29.12
2023-02-03T08:15:02.951Z,29.14
2023-02-03T08:17:31.043Z,29.33
2023-02-03T08:20:00.075Z,29.17
2023-02-03T08:22:27.898Z,29.09
2023-02-03T08:24:55.534Z,29.13
2023-02-03T08:27:23.548Z,29.28
2023-02-03T08:29:51.224Z,29.24
2023-02-03T08:32:19.919Z,29.53
2023-02-03T08:34:47.638Z,29.50
2023-02-03T08:37:17.464Z,29.30
2023-02-03T08:39:45.337Z,29.30
2023-02-03T08:42:13.102Z,29.42
2023-02-03T08:44:40.777Z,29.37
2023-02-03T08:47:08.452Z,29.34
2023-02-03T08:49:39.570Z,29.45
2023-02-03T08:52:07.294Z,29.46
2023-02-03T08:54:36.745Z,29.69
2023-02-03T08:57:04.457Z,29.63
2023-02-03T08:59:36.510Z,29.51
2023-02-03T09:02:05.005Z,29.58
2023-02-03T09:04:34.511Z,29.50
2023-02-03T09:07:02.638Z,29.53
2023-02-03T09:09:32.361Z,29.55
2023-02-03T09:12:05.486Z,29.30
2023-02-03T09:14:33.880Z,29.59
2023-02-03T09:17:01.720Z,29.84
2023-02-03T09:19:29.666Z,29.81
2023-02-03T09:21:57.470Z,29.66
2023-02-03T09:24:25.966Z,29.58
2023-02-03T09:26:53.641Z,29.97
2023-02-03T09:29:23.734Z,29.74
2023-02-03T09:31:52.905Z,29.71
2023-02-03T09:34:21.751Z,29.83
2023-02-03T09:36:49.520Z,29.60
2023-02-03T09:39:17.297Z,29.49
2023-02-03T09:42:03.409Z,29.64
2023-02-03T09:44:33.582Z,29.60
2023-02-03T09:47:02.541Z,29.63
2023-02-03T09:49:33.562Z,29.64
2023-02-03T09:52:04.547Z,29.39
2023-02-03T09:54:34.372Z,30.20
2023-02-03T09:57:03.446Z,30.30
2023-02-03T09:59:31.192Z,30.05
2023-02-03T10:02:02.265Z,29.84
2023-02-03T10:04:32.456Z,30.43
2023-02-03T10:07:05.524Z,30.42
2023-02-03T10:09:37.662Z,30.45
2023-02-03T10:12:13.950Z,30.47
2023-02-03T10:14:44.980Z,30.42
2023-02-03T10:17:18.734Z,30.48
2023-02-03T10:19:47.183Z,30.57
2023-02-03T10:22:16.431Z,30.25
2023-02-03T10:24:46.253Z,30.47
2023-02-03T10:27:16.058Z,30.21
2023-02-03T10:29:44.445Z,30.49
2023-02-03T10:32:12.217Z,30.36
2023-02-03T10:34:41.359Z,30.52
2023-02-03T10:37:12.401Z,30.56
2023-02-03T10:39:41.091Z,30.41
2023-02-03T10:42:08.763Z,30.74
2023-02-03T10:44:39.102Z,30.37
2023-02-03T10:47:21.900Z,30.59
2023-02-03T10:49:52.810Z,30.55
2023-02-03T10:52:27.496Z,30.33
2023-02-03T10:54:56.823Z,30.26
2023-02-03T10:57:24.466Z,30.08
2023-02-03T10:59:52.099Z,30.41
2023-02-03T11:02:24.155Z,30.43
2023-02-03T11:05:07.398Z,30.25
2023-02-03T11:07:37.067Z,30.20
2023-02-03T11:10:04.878Z,30.39
2023-02-03T11:12:33.331Z,29.86
2023-02-03T11:15:00.992Z,30.17
2023-02-03T11:17:29.678Z,30.05
2023-02-03T11:19:59.758Z,30.19
2023-02-03T11:22:28.336Z,30.27
2023-02-03T11:24:58.292Z,30.18
2023-02-03T11:27:27.744Z,30.24
2023-02-03T11:29:56.847Z,30.08
2023-02-03T11:32:24.884Z,30.05
2023-02-03T11:34:56.151Z,30.06
2023-02-03T11:37:27.404Z,30.10
2023-02-03T11:40:19.005Z,30.24
2023-02-03T11:42:47.220Z,30.11
2023-02-03T11:45:15.210Z,30.00
2023-02-03T11:47:46.060Z,30.27
2023-02-03T11:50:26.126Z,31.44
2023-02-03T11:53:09.589Z,31.40
2023-02-03T11:55:49.894Z,34.93
2023-02-03T11:58:46.028Z,34.90
2023-02-03T12:01:15.276Z,34.39
2023-02-03T12:03:51.207Z,35.66
2023-02-03T12:06:44.102Z,36.53
2023-02-03T12:09:24.611Z,35.03
2023-02-03T12:12:25.582Z,36.59
2023-02-03T12:14:56.724Z,36.63
2023-02-03T12:17:30.943Z,37.57
2023-02-03T12:20:05.301Z,37.23
2023-02-03T12:22:34.710Z,38.57
2023-02-03T12:25:05.637Z,39.08
2023-02-03T12:27:39.203Z,39.08
2023-02-03T12:30:08.843Z,38.97
2023-02-03T12:32:37.841Z,38.80
2023-02-03T12:35:07.255Z,37.56
2023-02-03T12:37:36.339Z,39.80
2023-02-03T12:40:04.425Z,38.45
2023-02-03T12:42:32.673Z,39.05
2023-02-03T12:45:03.128Z,37.27
2023-02-03T12:47:31.586Z,38.16
2023-02-03T12:50:01.323Z,37.71
2023-02-03T12:52:30.048Z,39.39
2023-02-03T12:55:01.225Z,38.69
2023-02-03T12:57:30.052Z,39.21
2023-02-03T13:00:05.996Z,37.82
2023-02-03T13:02:34.980Z,39.28
2023-02-03T13:05:06.447Z,40.84
2023-02-03T13:07:34.759Z,41.22
2023-02-03T13:10:05.419Z,38.90
2023-02-03T13:12:34.351Z,39.10
2023-02-03T13:15:05.237Z,38.14
2023-02-03T13:17:36.170Z,39.28
2023-02-03T13:20:05.408Z,37.27
2023-02-03T13:22:33.824Z,38.36
2023-02-03T13:25:03.969Z,38.17
2023-02-03T13:27:40.499Z,38.31
2023-02-03T13:30:31.765Z,38.29
2023-02-03T13:33:06.405Z,38.44
2023-02-03T13:35:37.418Z,37.20
2023-02-03T13:38:08.840Z,37.14
2023-02-03T13:40:39.065Z,40.26
2023-02-03T13:43:07.499Z,37.02
2023-02-03T13:45:39.216Z,36.86
2023-02-03T13:48:09.700Z,40.12
2023-02-03T13:50:38.231Z,39.75
2023-02-03T13:53:07.240Z,38.29
2023-02-03T13:55:37.693Z,40.47
2023-02-03T13:58:05.361Z,40.17
2023-02-03T14:00:52.261Z,39.96
2023-02-03T14:03:41.742Z,40.08
2023-02-03T14:06:12.587Z,41.00
2023-02-03T14:08:43.796Z,38.80
2023-02-03T14:11:32.492Z,41.53
2023-02-03T14:14:02.667Z,41.26
2023-02-03T14:16:30.414Z,40.38
2023-02-03T14:19:00.676Z,41.13
2023-02-03T14:21:28.649Z,42.00
2023-02-03T14:24:01.470Z,41.74
2023-02-03T14:26:33.411Z,41.24
2023-02-03T14:29:01.807Z,43.44
2023-02-03T14:31:29.609Z,44.02
2023-02-03T14:34:05.602Z,44.93
2023-02-03T14:36:35.394Z,44.60
2023-02-03T14:39:05.597Z,44.12
2023-02-03T14:41:37.583Z,44.51
2023-02-03T14:44:07.544Z,43.44
2023-02-03T14:46:38.311Z,42.62
2023-02-03T14:49:18.333Z,42.60
2023-02-03T14:51:50.526Z,43.99
2023-02-03T14:54:25.204Z,42.21
2023-02-03T14:57:13.076Z,40.34
2023-02-03T14:59:49.791Z,41.52
2023-02-03T15:02:20.727Z,41.76
2023-02-03T15:04:51.478Z,42.52
2023-02-03T15:07:38.250Z,43.04
2023-02-03T15:10:11.753Z,44.31
2023-02-03T15:12:42.287Z,41.70
2023-02-03T15:15:17.522Z,41.45
2023-02-03T15:17:45.213Z,41.67
2023-02-03T15:20:27.321Z,41.75
2023-02-03T15:22:54.971Z,41.95
2023-02-03T15:25:22.986Z,39.79
2023-02-03T15:27:51.523Z,39.93
2023-02-03T15:30:19.849Z,39.92
2023-02-03T15:32:50.873Z,39.28
2023-02-03T15:35:18.971Z,39.58
2023-02-03T15:37:50.155Z,39.16
2023-02-03T15:40:18.555Z,39.29
2023-02-03T15:42:49.462Z,39.73
2023-02-03T15:45:19.273Z,39.31
2023-02-03T15:47:48.796Z,39.62
2023-02-03T15:50:25.769Z,39.30
2023-02-03T15:52:55.775Z,39.21
2023-02-03T15:55:25.621Z,39.30
2023-02-03T15:57:53.876Z,40.03
2023-02-03T16:00:34.621Z,39.43
2023-02-03T16:03:05.089Z,39.38
2023-02-03T16:05:33.960Z,39.15
2023-02-03T16:08:16.451Z,39.07
2023-02-03T16:10:47.568Z,39.46
2023-02-03T16:13:20.146Z,38.63
2023-02-03T16:15:59.677Z,39.55
2023-02-03T16:18:27.382Z,38.89
2023-02-03T16:20:55.812Z,39.18
2023-02-03T16:23:23.800Z,39.33
2023-02-03T16:26:06.463Z,38.68
2023-02-03T16:28:51.533Z,38.92
2023-02-03T16:31:37.787Z,39.04
2023-02-03T16:34:32.044Z,38.86
2023-02-03T16:37:18.105Z,38.90
2023-02-03T16:40:02.761Z,38.85
2023-02-03T16:42:55.582Z,38.63
2023-02-03T16:45:41.145Z,38.59
2023-02-03T16:48:28.106Z,38.90
2023-02-03T16:50:58.113Z,38.87
2023-02-03T16:53:28.114Z,38.91
2023-02-03T16:55:56.361Z,38.83
2023-02-03T16:58:26.129Z,38.67
2023-02-03T17:00:53.984Z,38.69
2023-02-03T17:03:24.709Z,38.63
2023-02-03T17:05:52.405Z,38.58
2023-02-03T17:08:20.542Z,38.35
2023-02-03T17:10:50.226Z,38.75
2023-02-03T17:13:17.974Z,38.60
2023-02-03T17:15:48.687Z,38.93
2023-02-03T17:18:16.481Z,38.85
2023-02-03T17:20:44.188Z,39.31
2023-02-03T17:23:12.613Z,38.60
2023-02-03T17:25:40.459Z,38.09
2023-02-03T17:28:09.424Z,39.28
2023-02-03T17:30:37.166Z,38.21
2023-02-03T17:33:13.743Z,38.17
2023-02-03T17:35:41.927Z,38.35
2023-02-03T17:38:09.587Z,37.95
2023-02-03T17:54:31.285Z,37.82
2023-02-03T17:57:01.713Z,37.71
2023-02-03T17:59:29.456Z,38.11
2023-02-03T18:01:57.984Z,37.63
2023-02-03T18:04:28.758Z,37.81
2023-02-03T18:06:56.422Z,37.58
2023-02-03T18:09:24.821Z,38.43
2023-02-03T18:11:52.545Z,37.57
2023-02-03T18:14:21.167Z,37.75
2023-02-03T18:16:48.891Z,37.92
2023-02-03T18:19:17.523Z,37.50
2023-02-03T18:21:46.541Z,37.56
2023-02-03T18:24:14.830Z,38.16
2023-02-03T18:26:47.437Z,38.26
2023-02-03T18:29:15.136Z,37.10
2023-02-03T18:31:44.165Z,37.99
2023-02-03T18:34:12.795Z,36.95
2023-02-03T18:39:16.777Z,36.92
2023-02-03T18:41:44.501Z,36.94
2023-02-03T18:44:12.184Z,37.52
2023-02-03T18:46:40.656Z,37.12
2023-02-03T18:49:09.278Z,37.24
2023-02-03T18:51:38.793Z,36.88
2023-02-03T18:54:06.576Z,38.29
2023-02-03T18:56:37.024Z,39.53
2023-02-03T18:59:05.782Z,38.55
2023-02-03T19:01:34.837Z,39.02
2023-02-03T19:04:05.046Z,39.27
2023-02-03T19:06:35.748Z,38.51
2023-02-03T19:09:03.482Z,39.38
2023-02-03T19:11:32.769Z,38.53
2023-02-03T19:14:01.847Z,39.40
2023-02-03T19:16:30.873Z,38.62
2023-02-03T19:18:58.539Z,38.35
2023-02-03T19:21:27.036Z,39.32
2023-02-03T19:23:54.852Z,38.01
2023-02-03T19:26:23.465Z,37.92
2023-02-03T19:28:52.613Z,38.12
2023-02-03T19:31:22.697Z,37.17
2023-02-03T19:33:50.581Z,38.35
2023-02-03T19:36:19.012Z,37.88
2023-02-03T19:38:46.654Z,37.51
2023-02-03T19:41:14.405Z,37.39
2023-02-03T19:43:42.943Z,37.34
2023-02-03T19:46:10.640Z,37.55
2023-02-03T19:48:40.597Z,37.37
2023-02-03T19:51:08.312Z,37.35
2023-02-03T19:53:37.446Z,37.31
2023-02-03T19:56:05.648Z,37.49
2023-02-03T19:58:34.093Z,37.47
2023-02-03T20:01:01.750Z,37.47
2023-02-03T20:03:34.348Z,37.50
2023-02-03T20:06:04.037Z,37.36
2023-02-03T20:08:32.912Z,37.45
2023-02-03T20:11:01.103Z,37.22
2023-02-03T20:13:29.771Z,37.20
2023-02-03T20:15:57.443Z,37.24
2023-02-03T20:18:25.109Z,37.48
2023-02-03T20:20:53.827Z,37.15
2023-02-03T20:23:22.926Z,37.15
2023-02-03T20:25:50.697Z,37.13
2023-02-03T20:28:19.860Z,37.26
2023-02-03T20:30:47.570Z,37.33
2023-02-03T20:33:22.017Z,37.64
2023-02-03T20:35:49.674Z,37.29
2023-02-03T20:38:17.380Z,37.09
2023-02-03T20:40:47.988Z,37.04
2023-02-03T20:43:16.737Z,36.96
2023-02-03T20:45:45.704Z,36.88
2023-02-03T20:48:13.421Z,36.93
2023-02-03T20:50:47.461Z,36.83
2023-02-03T20:53:18.525Z,36.77
2023-02-03T20:55:54.122Z,37.23
2023-02-03T20:58:24.073Z,37.20
2023-02-03T21:00:52.524Z,36.76
2023-02-03T21:03:42.672Z,36.81
2023-02-03T21:06:14.345Z,36.96
2023-02-03T21:08:43.228Z,36.68
2023-02-03T21:11:13.827Z,36.86
2023-02-03T21:13:43.590Z,36.93
2023-02-03T21:16:17.122Z,36.74
2023-02-03T21:18:45.697Z,36.63
2023-02-03T21:21:13.848Z,36.73
2023-02-03T21:23:42.989Z,36.84
2023-02-03T21:26:21.702Z,36.67
2023-02-03T21:28:50.890Z,36.93
2023-02-03T21:31:20.088Z,36.99
2023-02-03T21:33:48.671Z,36.56
2023-02-03T21:36:16.737Z,36.21
2023-02-03T21:38:45.731Z,36.52
2023-02-03T21:41:15.881Z,36.51
2023-02-03T21:43:51.168Z,36.41
2023-02-03T21:46:19.055Z,36.60
2023-02-03T21:48:48.174Z,36.41
2023-02-03T21:51:17.278Z,36.44
2023-02-03T21:53:45.886Z,36.37
2023-02-03T21:56:18.402Z,36.53
2023-02-03T21:58:48.609Z,36.28
2023-02-03T22:01:18.719Z,36.21
2023-02-03T22:03:50.924Z,36.43
2023-02-03T22:06:24.769Z,36.42
2023-02-03T22:08:58.891Z,36.26
2023-02-03T22:11:27.948Z,36.40
2023-02-03T22:13:57.083Z,36.48
2023-02-03T22:16:25.935Z,36.17
2023-02-03T22:18:53.619Z,36.16
2023-02-03T22:21:22.110Z,36.47
2023-02-03T22:23:49.863Z,36.35
2023-02-03T22:26:18.339Z,36.31
2023-02-03T22:28:45.976Z,36.48
2023-02-03T22:31:20.037Z,36.38
2023-02-03T22:33:47.732Z,36.23
2023-02-03T22:36:16.833Z,36.17
2023-02-03T22:38:44.554Z,35.99
2023-02-03T22:41:13.804Z,36.46
2023-02-03T22:43:41.545Z,36.20
2023-02-03T22:46:10.058Z,36.08
2023-02-03T22:48:39.169Z,35.91
2023-02-03T22:51:07.741Z,36.23
2023-02-03T22:53:35.800Z,36.29
2023-02-03T22:56:03.499Z,36.19
2023-02-03T22:58:31.910Z,36.02
2023-02-03T23:00:59.564Z,36.35
2023-02-03T23:03:28.094Z,36.15
2023-02-03T23:05:57.422Z,36.04
2023-02-03T23:08:25.831Z,35.89
2023-02-03T23:10:53.470Z,36.17
2023-02-03T23:13:21.865Z,36.14
2023-02-03T23:15:49.611Z,36.23
2023-02-03T23:18:18.036Z,35.97
2023-02-03T23:20:45.713Z,36.11
2023-02-03T23:23:15.653Z,36.10
2023-02-03T23:25:43.350Z,36.20
2023-02-03T23:28:11.053Z,36.20
2023-02-03T23:30:38.740Z,35.96
2023-02-03T23:33:06.427Z,36.00
2023-02-03T23:35:49.316Z,35.83
2023-02-03T23:38:18.458Z,36.00
2023-02-03T23:40:46.335Z,35.88
2023-02-03T23:43:14.032Z,36.11
2023-02-03T23:45:41.828Z,36.20
2023-02-03T23:48:09.517Z,35.91
2023-02-03T23:50:37.231Z,36.00
2023-02-03T23:53:04.924Z,35.87
2023-02-03T23:55:33.988Z,35.93
2023-02-03T23:58:01.668Z,35.81
